sensor_id;sensor_type;location;lat;lon;timestamp;P1;durP1;ratioP1;P2;durP2;ratioP2
21339;SDS011;10828;47.064;15.422;2022-09-01T00:02:24;13.53;;;8.87;;
21339;SDS011;10828;47.064;15.422;2022-09-01T00:04:54;16.37;;;7.60;;
21339;SDS011;10828;47.064;15.422;2022-09-01T00:07:22;13.70;;;8.33;;
21339;SDS011;10828;47.064;15.422;2022-09-01T00:09:49;12.60;;;7.17;;
21339;SDS011;10828;47.064;15.422;2022-09-01T00:12:21;13.60;;;8.20;;
21339;SDS011;10828;47.064;15.422;2022-09-01T00:14:49;16.47;;;8.00;;
21339;SDS011;10828;47.064;15.422;2022-09-01T00:17:15;11.03;;;7.47;;
21339;SDS011;10828;47.064;15.422;2022-09-01T00:19:41;10.27;;;7.13;;
21339;SDS011;10828;47.064;15.422;2022-09-01T00:22:09;14.53;;;7.90;;
21339;SDS011;10828;47.064;15.422;2022-09-01T00:24:35;13.00;;;7.40;;
21339;SDS011;10828;47.064;15.422;2022-09-01T00:27:07;17.00;;;7.40;;
21339;SDS011;10828;47.064;15.422;2022-09-01T00:29:38;11.97;;;7.67;;
21339;SDS011;10828;47.064;15.422;2022-09-01T00:32:05;11.60;;;7.00;;
21339;SDS011;10828;47.064;15.422;2022-09-01T00:34:31;10.60;;;6.90;;
21339;SDS011;10828;47.064;15.422;2022-09-01T00:37:06;12.87;;;7.63;;
21339;SDS011;10828;47.064;15.422;2022-09-01T00:39:34;13.27;;;8.20;;
21339;SDS011;10828;47.064;15.422;2022-09-01T00:42:00;13.63;;;8.10;;
21339;SDS011;10828;47.064;15.422;2022-09-01T00:44:35;10.87;;;7.37;;
21339;SDS011;10828;47.064;15.422;2022-09-01T00:47:02;15.57;;;8.10;;
21339;SDS011;10828;47.064;15.422;2022-09-01T00:52:00;12.43;;;7.40;;
21339;SDS011;10828;47.064;15.422;2022-09-01T00:54:28;12.77;;;7.00;;
21339;SDS011;10828;47.064;15.422;2022-09-01T00:56:56;11.20;;;7.27;;
21339;SDS011;10828;47.064;15.422;2022-09-01T00:59:24;10.97;;;6.80;;
21339;SDS011;10828;47.064;15.422;2022-09-01T01:01:51;9.63;;;6.30;;
21339;SDS011;10828;47.064;15.422;2022-09-01T01:04:19;11.97;;;6.63;;
21339;SDS011;10828;47.064;15.422;2022-09-01T01:06:47;10.53;;;6.70;;
21339;SDS011;10828;47.064;15.422;2022-09-01T01:09:16;9.87;;;6.23;;
21339;SDS011;10828;47.064;15.422;2022-09-01T01:11:42;11.40;;;6.97;;
21339;SDS011;10828;47.064;15.422;2022-09-01T01:14:11;10.67;;;6.37;;
21339;SDS011;10828;47.064;15.422;2022-09-01T01:16:41;12.17;;;7.67;;
21339;SDS011;10828;47.064;15.422;2022-09-01T01:21:59;12.00;;;7.17;;
21339;SDS011;10828;47.064;15.422;2022-09-01T01:24:45;11.73;;;7.00;;
21339;SDS011;10828;47.064;15.422;2022-09-01T01:27:12;12.77;;;7.27;;
21339;SDS011;10828;47.064;15.422;2022-09-01T01:29:41;13.03;;;7.90;;
21339;SDS011;10828;47.064;15.422;2022-09-01T01:32:08;11.37;;;7.43;;
21339;SDS011;10828;47.064;15.422;2022-09-01T01:34:36;18.83;;;8.00;;
21339;SDS011;10828;47.064;15.422;2022-09-01T01:37:10;12.07;;;7.63;;
21339;SDS011;10828;47.064;15.422;2022-09-01T01:39:38;13.77;;;7.90;;
21339;SDS011;10828;47.064;15.422;2022-09-01T01:42:19;12.47;;;7.73;;
21339;SDS011;10828;47.064;15.422;2022-09-01T01:47:15;10.93;;;6.57;;
21339;SDS011;10828;47.064;15.422;2022-09-01T01:49:44;10.03;;;6.87;;
21339;SDS011;10828;47.064;15.422;2022-09-01T01:52:12;11.17;;;6.80;;
21339;SDS011;10828;47.064;15.422;2022-09-01T01:54:44;10.77;;;6.10;;
21339;SDS011;10828;47.064;15.422;2022-09-01T01:57:10;10.37;;;5.50;;
21339;SDS011;10828;47.064;15.422;2022-09-01T01:59:41;8.37;;;4.90;;
21339;SDS011;10828;47.064;15.422;2022-09-01T02:02:16;9.67;;;5.20;;
21339;SDS011;10828;47.064;15.422;2022-09-01T02:04:42;8.33;;;5.20;;
21339;SDS011;10828;47.064;15.422;2022-09-01T02:07:17;9.70;;;4.80;;
21339;SDS011;10828;47.064;15.422;2022-09-01T02:09:43;8.13;;;5.00;;
21339;SDS011;10828;47.064;15.422;2022-09-01T02:12:14;9.63;;;4.50;;
21339;SDS011;10828;47.064;15.422;2022-09-01T02:14:43;5.30;;;4.20;;
21339;SDS011;10828;47.064;15.422;2022-09-01T02:17:09;7.27;;;3.97;;
21339;SDS011;10828;47.064;15.422;2022-09-01T02:19:35;8.17;;;4.60;;
21339;SDS011;10828;47.064;15.422;2022-09-01T02:22:07;8.93;;;5.20;;
21339;SDS011;10828;47.064;15.422;2022-09-01T02:24:41;6.67;;;4.47;;
21339;SDS011;10828;47.064;15.422;2022-09-01T02:27:14;5.40;;;3.77;;
21339;SDS011;10828;47.064;15.422;2022-09-01T02:29:49;5.80;;;3.70;;
21339;SDS011;10828;47.064;15.422;2022-09-01T02:32:16;13.70;;;4.07;;
21339;SDS011;10828;47.064;15.422;2022-09-01T02:34:43;8.40;;;4.10;;
21339;SDS011;10828;47.064;15.422;2022-09-01T02:37:23;6.20;;;4.13;;
21339;SDS011;10828;47.064;15.422;2022-09-01T02:39:52;5.27;;;3.60;;
21339;SDS011;10828;47.064;15.422;2022-09-01T02:42:21;9.07;;;4.97;;
21339;SDS011;10828;47.064;15.422;2022-09-01T02:44:53;9.60;;;4.77;;
21339;SDS011;10828;47.064;15.422;2022-09-01T02:47:19;6.27;;;4.23;;
21339;SDS011;10828;47.064;15.422;2022-09-01T02:49:53;7.43;;;4.33;;
21339;SDS011;10828;47.064;15.422;2022-09-01T02:52:19;7.30;;;4.10;;
21339;SDS011;10828;47.064;15.422;2022-09-01T02:54:47;9.80;;;4.10;;
21339;SDS011;10828;47.064;15.422;2022-09-01T02:57:16;5.57;;;3.80;;
21339;SDS011;10828;47.064;15.422;2022-09-01T02:59:42;9.50;;;4.30;;
21339;SDS011;10828;47.064;15.422;2022-09-01T03:02:09;11.07;;;4.33;;
21339;SDS011;10828;47.064;15.422;2022-09-01T03:04:35;7.80;;;4.33;;
21339;SDS011;10828;47.064;15.422;2022-09-01T03:07:03;8.43;;;5.33;;
21339;SDS011;10828;47.064;15.422;2022-09-01T03:09:29;12.97;;;5.10;;
21339;SDS011;10828;47.064;15.422;2022-09-01T03:11:57;14.33;;;5.40;;
21339;SDS011;10828;47.064;15.422;2022-09-01T03:14:25;7.53;;;4.33;;
21339;SDS011;10828;47.064;15.422;2022-09-01T03:16:52;7.80;;;4.33;;
21339;SDS011;10828;47.064;15.422;2022-09-01T03:19:19;5.57;;;3.83;;
21339;SDS011;10828;47.064;15.422;2022-09-01T03:21:46;11.37;;;4.47;;
21339;SDS011;10828;47.064;15.422;2022-09-01T03:24:18;9.03;;;5.37;;
21339;SDS011;10828;47.064;15.422;2022-09-01T03:26:46;8.90;;;4.90;;
21339;SDS011;10828;47.064;15.422;2022-09-01T03:29:13;8.70;;;5.07;;
21339;SDS011;10828;47.064;15.422;2022-09-01T03:31:40;8.60;;;5.20;;
21339;SDS011;10828;47.064;15.422;2022-09-01T03:34:11;7.47;;;4.60;;
21339;SDS011;10828;47.064;15.422;2022-09-01T03:36:39;10.87;;;4.93;;
21339;SDS011;10828;47.064;15.422;2022-09-01T03:39:17;7.77;;;4.97;;
21339;SDS011;10828;47.064;15.422;2022-09-01T03:41:44;12.53;;;6.43;;
21339;SDS011;10828;47.064;15.422;2022-09-01T03:44:11;10.83;;;5.10;;
21339;SDS011;10828;47.064;15.422;2022-09-01T03:46:41;12.17;;;5.30;;
21339;SDS011;10828;47.064;15.422;2022-09-01T03:49:08;8.07;;;4.63;;
21339;SDS011;10828;47.064;15.422;2022-09-01T03:51:42;11.10;;;5.43;;
21339;SDS011;10828;47.064;15.422;2022-09-01T03:54:09;10.27;;;4.87;;
21339;SDS011;10828;47.064;15.422;2022-09-01T03:56:35;12.57;;;5.53;;
21339;SDS011;10828;47.064;15.422;2022-09-01T03:59:05;15.13;;;5.37;;
21339;SDS011;10828;47.064;15.422;2022-09-01T04:01:32;8.23;;;5.23;;
21339;SDS011;10828;47.064;15.422;2022-09-01T04:04:04;14.90;;;6.10;;
21339;SDS011;10828;47.064;15.422;2022-09-01T04:06:31;14.57;;;5.50;;
21339;SDS011;10828;47.064;15.422;2022-09-01T04:08:57;19.23;;;5.60;;
21339;SDS011;10828;47.064;15.422;2022-09-01T04:11:27;18.00;;;6.20;;
21339;SDS011;10828;47.064;15.422;2022-09-01T04:13:55;12.93;;;5.43;;
21339;SDS011;10828;47.064;15.422;2022-09-01T04:16:23;16.63;;;5.57;;
21339;SDS011;10828;47.064;15.422;2022-09-01T04:19:09;7.87;;;5.53;;
21339;SDS011;10828;47.064;15.422;2022-09-01T04:21:44;9.20;;;5.43;;
21339;SDS011;10828;47.064;15.422;2022-09-01T04:24:10;13.43;;;6.17;;
21339;SDS011;10828;47.064;15.422;2022-09-01T04:26:39;15.07;;;6.33;;
21339;SDS011;10828;47.064;15.422;2022-09-01T04:29:05;16.00;;;7.83;;
21339;SDS011;10828;47.064;15.422;2022-09-01T04:31:34;14.77;;;6.60;;
21339;SDS011;10828;47.064;15.422;2022-09-01T04:34:03;12.87;;;5.43;;
21339;SDS011;10828;47.064;15.422;2022-09-01T04:36:35;18.03;;;5.60;;
21339;SDS011;10828;47.064;15.422;2022-09-01T04:39:04;9.57;;;5.20;;
21339;SDS011;10828;47.064;15.422;2022-09-01T04:41:34;20.93;;;5.83;;
21339;SDS011;10828;47.064;15.422;2022-09-01T04:44:01;52.37;;;6.90;;
21339;SDS011;10828;47.064;15.422;2022-09-01T04:46:29;16.53;;;5.27;;
21339;SDS011;10828;47.064;15.422;2022-09-01T04:48:56;24.33;;;5.67;;
21339;SDS011;10828;47.064;15.422;2022-09-01T04:51:29;25.33;;;5.80;;
21339;SDS011;10828;47.064;15.422;2022-09-01T04:53:56;20.33;;;5.10;;
21339;SDS011;10828;47.064;15.422;2022-09-01T04:56:25;23.53;;;4.77;;
21339;SDS011;10828;47.064;15.422;2022-09-01T04:58:54;16.60;;;5.50;;
21339;SDS011;10828;47.064;15.422;2022-09-01T05:01:22;25.13;;;5.30;;
21339;SDS011;10828;47.064;15.422;2022-09-01T05:03:49;20.93;;;4.90;;
21339;SDS011;10828;47.064;15.422;2022-09-01T05:06:21;9.77;;;4.30;;
21339;SDS011;10828;47.064;15.422;2022-09-01T05:08:47;18.13;;;4.83;;
21339;SDS011;10828;47.064;15.422;2022-09-01T05:11:15;14.10;;;4.67;;
21339;SDS011;10828;47.064;15.422;2022-09-01T05:13:47;13.83;;;5.17;;
21339;SDS011;10828;47.064;15.422;2022-09-01T05:16:17;9.93;;;4.07;;
21339;SDS011;10828;47.064;15.422;2022-09-01T05:18:46;9.30;;;4.30;;
21339;SDS011;10828;47.064;15.422;2022-09-01T05:21:14;14.00;;;4.30;;
21339;SDS011;10828;47.064;15.422;2022-09-01T05:23:41;15.27;;;7.70;;
21339;SDS011;10828;47.064;15.422;2022-09-01T05:26:11;9.50;;;4.50;;
21339;SDS011;10828;47.064;15.422;2022-09-01T05:28:41;14.30;;;4.30;;
21339;SDS011;10828;47.064;15.422;2022-09-01T05:31:07;10.40;;;4.20;;
21339;SDS011;10828;47.064;15.422;2022-09-01T05:33:34;14.83;;;3.93;;
21339;SDS011;10828;47.064;15.422;2022-09-01T05:36:01;10.20;;;3.73;;
21339;SDS011;10828;47.064;15.422;2022-09-01T05:38:32;6.27;;;3.93;;
21339;SDS011;10828;47.064;15.422;2022-09-01T05:41:00;13.10;;;4.30;;
21339;SDS011;10828;47.064;15.422;2022-09-01T05:43:29;6.83;;;3.90;;
21339;SDS011;10828;47.064;15.422;2022-09-01T05:45:57;17.47;;;5.10;;
21339;SDS011;10828;47.064;15.422;2022-09-01T05:48:25;23.23;;;4.67;;
21339;SDS011;10828;47.064;15.422;2022-09-01T05:50:52;11.97;;;4.67;;
21339;SDS011;10828;47.064;15.422;2022-09-01T05:53:22;13.17;;;4.63;;
21339;SDS011;10828;47.064;15.422;2022-09-01T05:56:04;10.13;;;4.40;;
21339;SDS011;10828;47.064;15.422;2022-09-01T05:58:32;13.53;;;4.27;;
21339;SDS011;10828;47.064;15.422;2022-09-01T06:00:59;18.00;;;4.03;;
21339;SDS011;10828;47.064;15.422;2022-09-01T06:03:26;11.27;;;4.50;;
21339;SDS011;10828;47.064;15.422;2022-09-01T06:06:00;12.83;;;4.17;;
21339;SDS011;10828;47.064;15.422;2022-09-01T06:08:26;8.10;;;3.33;;
21339;SDS011;10828;47.064;15.422;2022-09-01T06:10:53;6.93;;;3.90;;
21339;SDS011;10828;47.064;15.422;2022-09-01T06:13:22;10.93;;;4.53;;
21339;SDS011;10828;47.064;15.422;2022-09-01T06:15:48;9.20;;;4.13;;
21339;SDS011;10828;47.064;15.422;2022-09-01T06:18:14;13.93;;;4.40;;
21339;SDS011;10828;47.064;15.422;2022-09-01T06:20:42;7.17;;;3.73;;
21339;SDS011;10828;47.064;15.422;2022-09-01T06:23:09;10.10;;;5.30;;
21339;SDS011;10828;47.064;15.422;2022-09-01T06:25:39;9.00;;;3.27;;
21339;SDS011;10828;47.064;15.422;2022-09-01T06:30:55;19.37;;;5.80;;
21339;SDS011;10828;47.064;15.422;2022-09-01T06:33:21;11.53;;;4.70;;
21339;SDS011;10828;47.064;15.422;2022-09-01T06:35:50;8.30;;;3.77;;
21339;SDS011;10828;47.064;15.422;2022-09-01T06:38:17;9.43;;;3.50;;
21339;SDS011;10828;47.064;15.422;2022-09-01T06:40:43;9.23;;;3.53;;
21339;SDS011;10828;47.064;15.422;2022-09-01T06:43:10;6.13;;;3.37;;
21339;SDS011;10828;47.064;15.422;2022-09-01T06:45:41;7.33;;;3.27;;
21339;SDS011;10828;47.064;15.422;2022-09-01T06:48:07;5.33;;;3.10;;
21339;SDS011;10828;47.064;15.422;2022-09-01T06:50:41;6.07;;;3.00;;
21339;SDS011;10828;47.064;15.422;2022-09-01T06:53:07;4.53;;;2.77;;
21339;SDS011;10828;47.064;15.422;2022-09-01T06:55:40;9.20;;;3.13;;
21339;SDS011;10828;47.064;15.422;2022-09-01T06:58:10;7.30;;;2.93;;
21339;SDS011;10828;47.064;15.422;2022-09-01T07:00:39;6.03;;;2.90;;
21339;SDS011;10828;47.064;15.422;2022-09-01T07:03:08;4.97;;;2.80;;
21339;SDS011;10828;47.064;15.422;2022-09-01T07:05:38;6.93;;;3.07;;
21339;SDS011;10828;47.064;15.422;2022-09-01T07:08:05;5.70;;;2.90;;
21339;SDS011;10828;47.064;15.422;2022-09-01T07:10:45;7.97;;;3.17;;
21339;SDS011;10828;47.064;15.422;2022-09-01T07:13:15;4.73;;;2.83;;
21339;SDS011;10828;47.064;15.422;2022-09-01T07:15:46;5.83;;;2.67;;
21339;SDS011;10828;47.064;15.422;2022-09-01T07:18:20;5.53;;;2.70;;
21339;SDS011;10828;47.064;15.422;2022-09-01T07:20:55;6.83;;;2.80;;
21339;SDS011;10828;47.064;15.422;2022-09-01T07:23:21;11.00;;;3.23;;
21339;SDS011;10828;47.064;15.422;2022-09-01T07:25:50;5.10;;;3.03;;
21339;SDS011;10828;47.064;15.422;2022-09-01T07:28:20;5.67;;;2.60;;
21339;SDS011;10828;47.064;15.422;2022-09-01T07:30:49;5.83;;;2.30;;
21339;SDS011;10828;47.064;15.422;2022-09-01T07:33:18;4.83;;;2.80;;
21339;SDS011;10828;47.064;15.422;2022-09-01T07:35:44;6.83;;;2.63;;
21339;SDS011;10828;47.064;15.422;2022-09-01T07:38:11;5.27;;;2.43;;
21339;SDS011;10828;47.064;15.422;2022-09-01T07:40:43;4.80;;;2.40;;
21339;SDS011;10828;47.064;15.422;2022-09-01T07:43:23;8.07;;;2.67;;
21339;SDS011;10828;47.064;15.422;2022-09-01T07:45:53;6.40;;;2.47;;
21339;SDS011;10828;47.064;15.422;2022-09-01T07:48:22;10.30;;;3.03;;
21339;SDS011;10828;47.064;15.422;2022-09-01T07:50:51;8.50;;;2.33;;
21339;SDS011;10828;47.064;15.422;2022-09-01T07:53:25;9.43;;;2.83;;
21339;SDS011;10828;47.064;15.422;2022-09-01T07:56:06;4.87;;;2.70;;
21339;SDS011;10828;47.064;15.422;2022-09-01T07:58:33;6.00;;;2.70;;
21339;SDS011;10828;47.064;15.422;2022-09-01T08:01:00;4.77;;;2.47;;
21339;SDS011;10828;47.064;15.422;2022-09-01T08:03:29;4.67;;;2.17;;
21339;SDS011;10828;47.064;15.422;2022-09-01T08:06:00;8.17;;;2.43;;
21339;SDS011;10828;47.064;15.422;2022-09-01T08:08:29;13.47;;;2.80;;
21339;SDS011;10828;47.064;15.422;2022-09-01T08:10:55;7.80;;;3.27;;
21339;SDS011;10828;47.064;15.422;2022-09-01T08:13:22;8.13;;;3.13;;
21339;SDS011;10828;47.064;15.422;2022-09-01T08:15:48;5.00;;;2.50;;
21339;SDS011;10828;47.064;15.422;2022-09-01T08:18:16;8.30;;;2.77;;
21339;SDS011;10828;47.064;15.422;2022-09-01T08:20:42;8.57;;;2.43;;
21339;SDS011;10828;47.064;15.422;2022-09-01T08:23:10;4.07;;;2.47;;
21339;SDS011;10828;47.064;15.422;2022-09-01T08:25:37;11.67;;;3.10;;
21339;SDS011;10828;47.064;15.422;2022-09-01T08:28:03;7.77;;;2.57;;
21339;SDS011;10828;47.064;15.422;2022-09-01T08:30:30;7.03;;;2.40;;
21339;SDS011;10828;47.064;15.422;2022-09-01T08:32:57;6.43;;;2.47;;
21339;SDS011;10828;47.064;15.422;2022-09-01T08:35:23;11.67;;;3.00;;
21339;SDS011;10828;47.064;15.422;2022-09-01T08:37:49;9.00;;;2.57;;
21339;SDS011;10828;47.064;15.422;2022-09-01T08:40:16;5.87;;;2.13;;
21339;SDS011;10828;47.064;15.422;2022-09-01T08:42:45;5.33;;;2.40;;
21339;SDS011;10828;47.064;15.422;2022-09-01T08:45:24;7.53;;;2.70;;
21339;SDS011;10828;47.064;15.422;2022-09-01T08:47:56;8.20;;;2.60;;
21339;SDS011;10828;47.064;15.422;2022-09-01T08:50:23;5.27;;;2.70;;
21339;SDS011;10828;47.064;15.422;2022-09-01T08:52:57;5.40;;;2.20;;
21339;SDS011;10828;47.064;15.422;2022-09-01T08:57:51;5.13;;;2.10;;
21339;SDS011;10828;47.064;15.422;2022-09-01T09:00:21;11.97;;;2.90;;
21339;SDS011;10828;47.064;15.422;2022-09-01T09:05:40;4.60;;;2.63;;
21339;SDS011;10828;47.064;15.422;2022-09-01T09:10:59;9.60;;;2.83;;
21339;SDS011;10828;47.064;15.422;2022-09-01T09:21:08;3.60;;;2.20;;
21339;SDS011;10828;47.064;15.422;2022-09-01T09:23:38;3.73;;;2.10;;
21339;SDS011;10828;47.064;15.422;2022-09-01T09:26:06;4.57;;;2.23;;
21339;SDS011;10828;47.064;15.422;2022-09-01T09:28:32;5.17;;;2.10;;
21339;SDS011;10828;47.064;15.422;2022-09-01T09:34:26;11.70;;;2.50;;
21339;SDS011;10828;47.064;15.422;2022-09-01T09:36:56;11.83;;;2.67;;
21339;SDS011;10828;47.064;15.422;2022-09-01T09:39:26;7.60;;;2.27;;
21339;SDS011;10828;47.064;15.422;2022-09-01T09:42:06;11.87;;;2.20;;
21339;SDS011;10828;47.064;15.422;2022-09-01T09:44:37;5.87;;;2.20;;
21339;SDS011;10828;47.064;15.422;2022-09-01T09:47:05;6.80;;;2.70;;
21339;SDS011;10828;47.064;15.422;2022-09-01T09:49:33;6.83;;;1.90;;
21339;SDS011;10828;47.064;15.422;2022-09-01T09:54:29;7.33;;;2.40;;
21339;SDS011;10828;47.064;15.422;2022-09-01T10:02:15;5.20;;;2.10;;
21339;SDS011;10828;47.064;15.422;2022-09-01T10:04:42;4.87;;;2.07;;
21339;SDS011;10828;47.064;15.422;2022-09-01T10:07:22;7.37;;;2.13;;
21339;SDS011;10828;47.064;15.422;2022-09-01T10:09:49;3.57;;;1.80;;
21339;SDS011;10828;47.064;15.422;2022-09-01T10:12:16;6.77;;;2.13;;
21339;SDS011;10828;47.064;15.422;2022-09-01T10:14:45;3.63;;;1.80;;
21339;SDS011;10828;47.064;15.422;2022-09-01T10:17:15;9.43;;;2.60;;
21339;SDS011;10828;47.064;15.422;2022-09-01T10:19:44;4.80;;;1.93;;
21339;SDS011;10828;47.064;15.422;2022-09-01T10:22:12;4.33;;;2.00;;
21339;SDS011;10828;47.064;15.422;2022-09-01T10:24:38;6.50;;;2.53;;
21339;SDS011;10828;47.064;15.422;2022-09-01T10:27:06;3.90;;;1.60;;
21339;SDS011;10828;47.064;15.422;2022-09-01T10:29:36;4.37;;;1.53;;
21339;SDS011;10828;47.064;15.422;2022-09-01T10:34:38;3.60;;;1.50;;
21339;SDS011;10828;47.064;15.422;2022-09-01T10:37:05;5.60;;;1.83;;
21339;SDS011;10828;47.064;15.422;2022-09-01T10:39:34;11.07;;;2.00;;
21339;SDS011;10828;47.064;15.422;2022-09-01T10:42:25;9.07;;;2.23;;
21339;SDS011;10828;47.064;15.422;2022-09-01T10:44:58;10.13;;;2.13;;
21339;SDS011;10828;47.064;15.422;2022-09-01T10:47:28;3.83;;;1.70;;
21339;SDS011;10828;47.064;15.422;2022-09-01T10:55:19;6.07;;;1.90;;
21339;SDS011;10828;47.064;15.422;2022-09-01T11:00:42;6.77;;;2.00;;
21339;SDS011;10828;47.064;15.422;2022-09-01T11:10:59;6.43;;;1.83;;
21339;SDS011;10828;47.064;15.422;2022-09-01T11:13:40;7.67;;;2.07;;
21339;SDS011;10828;47.064;15.422;2022-09-01T11:18:53;5.60;;;2.47;;
21339;SDS011;10828;47.064;15.422;2022-09-01T11:21:24;5.30;;;2.80;;
21339;SDS011;10828;47.064;15.422;2022-09-01T11:23:50;14.97;;;3.13;;
21339;SDS011;10828;47.064;15.422;2022-09-01T11:28:58;9.33;;;3.07;;
21339;SDS011;10828;47.064;15.422;2022-09-01T11:31:36;5.93;;;3.50;;
21339;SDS011;10828;47.064;15.422;2022-09-01T11:34:08;4.60;;;2.60;;
21339;SDS011;10828;47.064;15.422;2022-09-01T11:36:36;7.63;;;2.90;;
21339;SDS011;10828;47.064;15.422;2022-09-01T11:44:51;8.93;;;3.07;;
21339;SDS011;10828;47.064;15.422;2022-09-01T11:47:26;5.93;;;2.93;;
21339;SDS011;10828;47.064;15.422;2022-09-01T11:49:57;5.90;;;2.77;;
21339;SDS011;10828;47.064;15.422;2022-09-01T11:52:31;4.93;;;2.80;;
21339;SDS011;10828;47.064;15.422;2022-09-01T11:54:59;12.20;;;2.93;;
21339;SDS011;10828;47.064;15.422;2022-09-01T11:57:27;15.13;;;3.77;;
21339;SDS011;10828;47.064;15.422;2022-09-01T11:59:54;7.37;;;2.77;;
21339;SDS011;10828;47.064;15.422;2022-09-01T12:02:25;7.17;;;2.80;;
21339;SDS011;10828;47.064;15.422;2022-09-01T12:04:53;8.10;;;2.83;;
21339;SDS011;10828;47.064;15.422;2022-09-01T12:09:52;10.27;;;2.90;;
21339;SDS011;10828;47.064;15.422;2022-09-01T12:12:39;9.77;;;2.90;;
21339;SDS011;10828;47.064;15.422;2022-09-01T12:15:07;6.40;;;2.53;;
21339;SDS011;10828;47.064;15.422;2022-09-01T12:17:34;8.27;;;2.73;;
21339;SDS011;10828;47.064;15.422;2022-09-01T12:22:54;6.50;;;2.33;;
21339;SDS011;10828;47.064;15.422;2022-09-01T12:25:22;6.00;;;2.30;;
21339;SDS011;10828;47.064;15.422;2022-09-01T12:27:48;6.30;;;2.43;;
21339;SDS011;10828;47.064;15.422;2022-09-01T12:30:17;5.60;;;2.37;;
21339;SDS011;10828;47.064;15.422;2022-09-01T12:32:43;7.60;;;2.20;;
21339;SDS011;10828;47.064;15.422;2022-09-01T12:35:20;5.97;;;2.43;;
21339;SDS011;10828;47.064;15.422;2022-09-01T12:37:47;6.77;;;3.07;;
21339;SDS011;10828;47.064;15.422;2022-09-01T12:40:22;3.83;;;2.33;;
21339;SDS011;10828;47.064;15.422;2022-09-01T12:42:49;5.93;;;2.83;;
21339;SDS011;10828;47.064;15.422;2022-09-01T12:48:00;4.57;;;2.40;;
21339;SDS011;10828;47.064;15.422;2022-09-01T12:52:55;11.20;;;2.37;;
21339;SDS011;10828;47.064;15.422;2022-09-01T12:57:55;7.77;;;2.20;;
21339;SDS011;10828;47.064;15.422;2022-09-01T13:00:29;4.73;;;2.50;;
21339;SDS011;10828;47.064;15.422;2022-09-01T13:05:25;5.43;;;2.37;;
21339;SDS011;10828;47.064;15.422;2022-09-01T13:07:54;3.33;;;2.00;;
21339;SDS011;10828;47.064;15.422;2022-09-01T13:10:20;6.33;;;2.17;;
21339;SDS011;10828;47.064;15.422;2022-09-01T13:12:49;5.17;;;2.20;;
21339;SDS011;10828;47.064;15.422;2022-09-01T13:15:16;7.70;;;2.53;;
21339;SDS011;10828;47.064;15.422;2022-09-01T13:17:42;8.03;;;2.13;;
21339;SDS011;10828;47.064;15.422;2022-09-01T13:20:08;10.40;;;2.10;;
21339;SDS011;10828;47.064;15.422;2022-09-01T13:22:36;7.30;;;2.17;;
21339;SDS011;10828;47.064;15.422;2022-09-01T13:25:02;6.83;;;2.30;;
21339;SDS011;10828;47.064;15.422;2022-09-01T13:27:29;8.60;;;2.20;;
21339;SDS011;10828;47.064;15.422;2022-09-01T13:29:55;8.70;;;2.80;;
21339;SDS011;10828;47.064;15.422;2022-09-01T13:32:21;8.87;;;2.27;;
21339;SDS011;10828;47.064;15.422;2022-09-01T13:34:49;4.70;;;2.27;;
21339;SDS011;10828;47.064;15.422;2022-09-01T13:37:18;15.63;;;3.40;;
21339;SDS011;10828;47.064;15.422;2022-09-01T13:39:44;14.93;;;2.80;;
21339;SDS011;10828;47.064;15.422;2022-09-01T13:42:12;19.73;;;2.43;;
21339;SDS011;10828;47.064;15.422;2022-09-01T13:44:38;17.70;;;2.90;;
21339;SDS011;10828;47.064;15.422;2022-09-01T13:47:04;9.20;;;2.40;;
21339;SDS011;10828;47.064;15.422;2022-09-01T13:49:36;9.77;;;2.07;;
21339;SDS011;10828;47.064;15.422;2022-09-01T13:52:04;16.17;;;2.50;;
21339;SDS011;10828;47.064;15.422;2022-09-01T13:54:30;9.70;;;2.60;;
21339;SDS011;10828;47.064;15.422;2022-09-01T13:56:57;7.87;;;2.30;;
21339;SDS011;10828;47.064;15.422;2022-09-01T13:59:23;6.37;;;1.90;;
21339;SDS011;10828;47.064;15.422;2022-09-01T14:01:50;8.03;;;2.40;;
21339;SDS011;10828;47.064;15.422;2022-09-01T14:04:16;9.10;;;3.00;;
21339;SDS011;10828;47.064;15.422;2022-09-01T14:06:44;7.03;;;1.90;;
21339;SDS011;10828;47.064;15.422;2022-09-01T14:09:12;6.97;;;1.87;;
21339;SDS011;10828;47.064;15.422;2022-09-01T14:11:42;15.97;;;3.30;;
21339;SDS011;10828;47.064;15.422;2022-09-01T14:14:09;5.80;;;2.30;;
21339;SDS011;10828;47.064;15.422;2022-09-01T14:16:35;7.53;;;2.50;;
21339;SDS011;10828;47.064;15.422;2022-09-01T14:19:01;8.37;;;2.20;;
21339;SDS011;10828;47.064;15.422;2022-09-01T14:21:27;9.13;;;2.10;;
21339;SDS011;10828;47.064;15.422;2022-09-01T14:23:55;4.43;;;2.07;;
21339;SDS011;10828;47.064;15.422;2022-09-01T14:26:28;12.97;;;2.33;;
21339;SDS011;10828;47.064;15.422;2022-09-01T14:28:54;7.27;;;2.37;;
21339;SDS011;10828;47.064;15.422;2022-09-01T14:31:21;7.43;;;2.23;;
21339;SDS011;10828;47.064;15.422;2022-09-01T14:33:48;9.33;;;2.10;;
21339;SDS011;10828;47.064;15.422;2022-09-01T14:36:22;10.90;;;2.87;;
21339;SDS011;10828;47.064;15.422;2022-09-01T14:41:26;11.33;;;2.77;;
21339;SDS011;10828;47.064;15.422;2022-09-01T14:43:52;3.97;;;2.33;;
21339;SDS011;10828;47.064;15.422;2022-09-01T14:46:19;4.07;;;2.30;;
21339;SDS011;10828;47.064;15.422;2022-09-01T14:48:47;6.53;;;2.50;;
21339;SDS011;10828;47.064;15.422;2022-09-01T14:51:20;11.00;;;2.47;;
21339;SDS011;10828;47.064;15.422;2022-09-01T14:53:48;8.63;;;3.20;;
21339;SDS011;10828;47.064;15.422;2022-09-01T14:56:14;8.47;;;2.30;;
21339;SDS011;10828;47.064;15.422;2022-09-01T14:58:42;9.17;;;2.80;;
21339;SDS011;10828;47.064;15.422;2022-09-01T15:01:18;10.00;;;2.50;;
21339;SDS011;10828;47.064;15.422;2022-09-01T15:03:55;5.60;;;2.37;;
21339;SDS011;10828;47.064;15.422;2022-09-01T15:06:21;7.40;;;2.60;;
21339;SDS011;10828;47.064;15.422;2022-09-01T15:08:47;14.73;;;2.50;;
21339;SDS011;10828;47.064;15.422;2022-09-01T15:11:16;13.33;;;2.93;;
21339;SDS011;10828;47.064;15.422;2022-09-01T15:13:42;10.20;;;2.90;;
21339;SDS011;10828;47.064;15.422;2022-09-01T15:16:13;10.97;;;2.90;;
21339;SDS011;10828;47.064;15.422;2022-09-01T15:18:40;6.63;;;2.50;;
21339;SDS011;10828;47.064;15.422;2022-09-01T15:21:06;8.53;;;2.83;;
21339;SDS011;10828;47.064;15.422;2022-09-01T15:23:34;4.50;;;1.30;;
21339;SDS011;10828;47.064;15.422;2022-09-01T15:26:00;6.77;;;1.87;;
21339;SDS011;10828;47.064;15.422;2022-09-01T15:28:26;6.80;;;1.70;;
21339;SDS011;10828;47.064;15.422;2022-09-01T15:30:52;3.20;;;1.30;;
21339;SDS011;10828;47.064;15.422;2022-09-01T15:33:18;5.03;;;1.30;;
21339;SDS011;10828;47.064;15.422;2022-09-01T15:35:45;2.60;;;1.30;;
21339;SDS011;10828;47.064;15.422;2022-09-01T15:38:14;4.93;;;1.20;;
21339;SDS011;10828;47.064;15.422;2022-09-01T15:40:41;2.70;;;1.20;;
21339;SDS011;10828;47.064;15.422;2022-09-01T15:43:08;5.27;;;1.40;;
21339;SDS011;10828;47.064;15.422;2022-09-01T15:45:35;3.47;;;1.40;;
21339;SDS011;10828;47.064;15.422;2022-09-01T15:48:03;3.70;;;1.40;;
21339;SDS011;10828;47.064;15.422;2022-09-01T15:50:29;4.37;;;1.40;;
21339;SDS011;10828;47.064;15.422;2022-09-01T15:52:59;5.67;;;1.30;;
21339;SDS011;10828;47.064;15.422;2022-09-01T15:55:29;4.43;;;1.10;;
21339;SDS011;10828;47.064;15.422;2022-09-01T15:57:56;4.47;;;1.30;;
21339;SDS011;10828;47.064;15.422;2022-09-01T16:00:27;2.83;;;1.10;;
21339;SDS011;10828;47.064;15.422;2022-09-01T16:02:53;3.13;;;1.37;;
21339;SDS011;10828;47.064;15.422;2022-09-01T16:05:23;2.50;;;1.23;;